RYR5606 EHAM-LMML
Flight info
| Callsign | RYR5606 |
|---|---|
| Flight time | 2h 33m |
| Altitude | 37000 |
| Route | RENDI2N EDUPO Z739 MISGO DCT ASBON DCT TUSUK DCT ULNOK L607 ABUKA DCT TEDGO DCT BATUB DCT TIRUL M738 NATAG DCT LORLO DCT MARON DCT EKOLA L12 GZO DCT |
| Aircraft | B738/M-SDE3/L |
Departure
| Time | 2026-04-29 18:56 |
|---|---|
| Airport | Amsterdam Airport Schiphol (EHAM) |
Arrival
| Time | 2026-04-29 21:30 |
|---|---|
| Airport | Malta International Airport (LMML) |
| Time | Latitude | Longitude | Altitude | Speed | Heading |
|---|---|---|---|---|---|
| 2026-04-29 18:40 | 52.31072 | 4.75566 | -29 ft | 0 kts | 148° |
| 2026-04-29 18:50 | 52.31081 | 4.75556 | -2 ft | 3 kts | 143° |
| 2026-04-29 18:50 | 52.31096 | 4.75535 | -2 ft | 3 kts | 123° |
| 2026-04-29 18:51 | 52.31103 | 4.75512 | -2 ft | 3 kts | 70° |
| 2026-04-29 18:51 | 52.31102 | 4.75503 | -2 ft | 2 kts | 356° |
| 2026-04-29 18:51 | 52.31099 | 4.75503 | -2 ft | 0 kts | 355° |
| 2026-04-29 18:53 | 52.31131 | 4.75499 | -2 ft | 8 kts | 355° |
| 2026-04-29 18:53 | 52.31192 | 4.75493 | -2 ft | 10 kts | 357° |
| 2026-04-29 18:53 | 52.31264 | 4.75486 | -2 ft | 10 kts | 356° |
| 2026-04-29 18:53 | 52.31336 | 4.75480 | -2 ft | 11 kts | 357° |
| 2026-04-29 18:54 | 52.31413 | 4.75451 | -2 ft | 12 kts | 310° |
| 2026-04-29 18:54 | 52.31421 | 4.75321 | -2 ft | 13 kts | 267° |
| 2026-04-29 18:54 | 52.31415 | 4.75118 | -2 ft | 21 kts | 267° |
| 2026-04-29 18:54 | 52.31407 | 4.74872 | -2 ft | 19 kts | 268° |
| 2026-04-29 18:55 | 52.31427 | 4.74687 | -2 ft | 15 kts | 324° |
| 2026-04-29 18:55 | 52.31507 | 4.74667 | -2 ft | 15 kts | 356° |
| 2026-04-29 18:55 | 52.31596 | 4.74661 | -2 ft | 11 kts | 360° |
| 2026-04-29 18:55 | 52.31658 | 4.74711 | -1 ft | 10 kts | 54° |
| 2026-04-29 18:56 | 52.31672 | 4.74887 | -3 ft | 41 kts | 87° |
| 2026-04-29 18:56 | 52.31704 | 4.75842 | -2 ft | 124 kts | 87° |
| 2026-04-29 18:56 | 52.31758 | 4.77550 | 364 ft | 161 kts | 86° |
| 2026-04-29 18:56 | 52.31809 | 4.79210 | 1562 ft | 146 kts | 86° |
| 2026-04-29 18:57 | 52.31873 | 4.80949 | 2643 ft | 155 kts | 88° |
| 2026-04-29 18:57 | 52.31937 | 4.82871 | 3080 ft | 185 kts | 88° |
| 2026-04-29 18:57 | 52.32010 | 4.85124 | 3491 ft | 207 kts | 89° |
| 2026-04-29 18:57 | 52.31830 | 4.87521 | 4041 ft | 223 kts | 103° |
| 2026-04-29 18:58 | 52.31240 | 4.89978 | 4617 ft | 239 kts | 113° |
| 2026-04-29 18:58 | 52.30558 | 4.92499 | 5556 ft | 245 kts | 112° |
| 2026-04-29 18:58 | 52.29871 | 4.95075 | 6555 ft | 249 kts | 112° |
| 2026-04-29 18:58 | 52.29228 | 4.97738 | 7465 ft | 254 kts | 106° |
| 2026-04-29 18:59 | 52.28735 | 5.00529 | 8404 ft | 257 kts | 103° |
| 2026-04-29 18:59 | 52.28264 | 5.03374 | 9341 ft | 262 kts | 103° |
| 2026-04-29 18:59 | 52.27789 | 5.06228 | 10278 ft | 266 kts | 103° |
| 2026-04-29 18:59 | 52.27095 | 5.09097 | 10887 ft | 285 kts | 117° |
| 2026-04-29 19:00 | 52.25942 | 5.11938 | 11107 ft | 314 kts | 122° |
| 2026-04-29 19:00 | 52.24646 | 5.14902 | 11695 ft | 326 kts | 122° |
| 2026-04-29 19:00 | 52.23312 | 5.17933 | 12541 ft | 330 kts | 122° |
| 2026-04-29 19:00 | 52.21972 | 5.21003 | 13439 ft | 333 kts | 121° |
| 2026-04-29 19:01 | 52.20629 | 5.24113 | 14282 ft | 337 kts | 121° |
| 2026-04-29 19:01 | 52.19273 | 5.27281 | 14999 ft | 342 kts | 121° |
| 2026-04-29 19:01 | 52.17903 | 5.30497 | 15743 ft | 347 kts | 121° |
| 2026-04-29 19:01 | 52.16520 | 5.33755 | 16496 ft | 352 kts | 121° |
| 2026-04-29 19:02 | 52.15139 | 5.37013 | 17178 ft | 357 kts | 121° |
| 2026-04-29 19:02 | 52.14179 | 5.39278 | 17662 ft | 361 kts | 121° |
| 2026-04-29 19:02 | 52.12278 | 5.43760 | 18629 ft | 366 kts | 121° |
| 2026-04-29 19:02 | 52.10822 | 5.47187 | 19269 ft | 370 kts | 121° |
| 2026-04-29 19:03 | 52.09353 | 5.50643 | 19925 ft | 373 kts | 121° |
| 2026-04-29 19:03 | 52.07872 | 5.54122 | 20571 ft | 376 kts | 121° |
| 2026-04-29 19:03 | 52.06377 | 5.57630 | 21199 ft | 379 kts | 121° |
| 2026-04-29 19:03 | 52.04867 | 5.61167 | 21802 ft | 383 kts | 121° |
| 2026-04-29 19:04 | 52.03342 | 5.64736 | 22426 ft | 386 kts | 121° |
| 2026-04-29 19:04 | 52.01799 | 5.68344 | 23012 ft | 390 kts | 121° |
| 2026-04-29 19:04 | 52.00242 | 5.71976 | 23616 ft | 393 kts | 121° |
| 2026-04-29 19:04 | 51.98673 | 5.75631 | 24148 ft | 397 kts | 121° |
| 2026-04-29 19:05 | 51.97088 | 5.79319 | 24659 ft | 399 kts | 121° |
| 2026-04-29 19:05 | 51.95505 | 5.82993 | 25297 ft | 397 kts | 121° |
| 2026-04-29 19:05 | 51.94458 | 5.85414 | 25751 ft | 394 kts | 121° |
| 2026-04-29 19:05 | 51.92882 | 5.89063 | 26280 ft | 397 kts | 120° |
| 2026-04-29 19:06 | 51.90745 | 5.94028 | 26506 ft | 411 kts | 121° |
| 2026-04-29 19:06 | 51.89098 | 5.97841 | 26936 ft | 414 kts | 121° |
| 2026-04-29 19:06 | 51.86136 | 6.03979 | 27791 ft | 421 kts | 131° |
| 2026-04-29 19:07 | 51.83845 | 6.07104 | 28226 ft | 428 kts | 137° |
| 2026-04-29 19:07 | 51.82325 | 6.09028 | 28504 ft | 430 kts | 137° |
| 2026-04-29 19:07 | 51.79143 | 6.13023 | 29012 ft | 434 kts | 137° |
| 2026-04-29 19:07 | 51.76747 | 6.16034 | 29416 ft | 437 kts | 137° |
| 2026-04-29 19:08 | 51.74346 | 6.19063 | 29820 ft | 439 kts | 137° |
| 2026-04-29 19:08 | 51.71936 | 6.22116 | 30202 ft | 441 kts | 136° |
| 2026-04-29 19:08 | 51.69520 | 6.25185 | 30541 ft | 443 kts | 136° |
| 2026-04-29 19:08 | 51.67093 | 6.28271 | 30847 ft | 445 kts | 136° |
| 2026-04-29 19:09 | 51.64652 | 6.31374 | 31192 ft | 447 kts | 136° |
| 2026-04-29 19:09 | 51.62215 | 6.34468 | 31644 ft | 445 kts | 136° |
| 2026-04-29 19:09 | 51.59794 | 6.37534 | 32179 ft | 441 kts | 136° |
| 2026-04-29 19:09 | 51.57390 | 6.40576 | 32631 ft | 440 kts | 136° |
| 2026-04-29 19:10 | 51.54978 | 6.43627 | 33004 ft | 440 kts | 136° |
| 2026-04-29 19:10 | 51.52579 | 6.46657 | 33376 ft | 439 kts | 136° |
| 2026-04-29 19:10 | 51.50179 | 6.49685 | 33798 ft | 438 kts | 136° |
| 2026-04-29 19:10 | 51.47789 | 6.52694 | 34245 ft | 436 kts | 136° |
| 2026-04-29 19:11 | 51.45398 | 6.55702 | 34588 ft | 436 kts | 136° |
| 2026-04-29 19:11 | 51.43008 | 6.58705 | 34823 ft | 437 kts | 136° |
| 2026-04-29 19:11 | 51.40606 | 6.61721 | 35059 ft | 439 kts | 136° |
| 2026-04-29 19:11 | 51.38198 | 6.64738 | 35346 ft | 439 kts | 136° |
| 2026-04-29 19:12 | 51.35825 | 6.67706 | 35645 ft | 439 kts | 136° |
| 2026-04-29 19:12 | 51.33387 | 6.70751 | 35925 ft | 440 kts | 136° |
| 2026-04-29 19:12 | 51.30989 | 6.73744 | 36079 ft | 444 kts | 136° |
| 2026-04-29 19:12 | 51.29343 | 6.75796 | 36227 ft | 445 kts | 136° |
| 2026-04-29 19:13 | 51.26109 | 6.79819 | 36590 ft | 445 kts | 136° |
| 2026-04-29 19:13 | 51.23662 | 6.82858 | 36862 ft | 445 kts | 136° |
| 2026-04-29 19:13 | 51.21218 | 6.85887 | 37096 ft | 446 kts | 136° |
| 2026-04-29 19:13 | 51.18761 | 6.88931 | 37311 ft | 447 kts | 136° |
| 2026-04-29 19:14 | 51.16294 | 6.91986 | 37304 ft | 452 kts | 137° |
| 2026-04-29 19:14 | 51.11309 | 6.98141 | 37316 ft | 451 kts | 137° |
| 2026-04-29 19:15 | 51.06406 | 7.04162 | 37309 ft | 444 kts | 137° |
| 2026-04-29 19:15 | 51.01513 | 7.10167 | 37344 ft | 444 kts | 137° |
| 2026-04-29 19:16 | 50.96610 | 7.16178 | 37326 ft | 445 kts | 137° |
| 2026-04-29 19:16 | 50.91691 | 7.22187 | 37325 ft | 447 kts | 137° |
| 2026-04-29 19:17 | 50.86755 | 7.28199 | 37326 ft | 448 kts | 137° |
| 2026-04-29 19:17 | 50.81794 | 7.34223 | 37323 ft | 450 kts | 137° |
| 2026-04-29 19:18 | 50.76851 | 7.40209 | 37318 ft | 451 kts | 137° |
| 2026-04-29 19:18 | 50.71942 | 7.46137 | 37321 ft | 452 kts | 137° |
| 2026-04-29 19:19 | 50.66856 | 7.52261 | 37325 ft | 453 kts | 137° |
| 2026-04-29 19:19 | 50.61838 | 7.58288 | 37316 ft | 453 kts | 138° |
| 2026-04-29 19:20 | 50.56814 | 7.64306 | 37318 ft | 454 kts | 138° |
| 2026-04-29 19:20 | 50.51813 | 7.70278 | 37313 ft | 453 kts | 138° |
| 2026-04-29 19:21 | 50.46428 | 7.75526 | 37319 ft | 459 kts | 149° |
| 2026-04-29 19:21 | 50.40657 | 7.79916 | 37314 ft | 460 kts | 150° |
| 2026-04-29 19:22 | 50.34892 | 7.84272 | 37319 ft | 460 kts | 150° |
| 2026-04-29 19:22 | 50.29146 | 7.88689 | 37308 ft | 460 kts | 150° |
| 2026-04-29 19:23 | 50.23412 | 7.93131 | 37309 ft | 460 kts | 149° |
| 2026-04-29 19:23 | 50.17682 | 7.97570 | 37316 ft | 460 kts | 149° |
| 2026-04-29 19:24 | 50.11990 | 8.01967 | 37317 ft | 459 kts | 150° |
| 2026-04-29 19:24 | 50.06250 | 8.06387 | 37323 ft | 460 kts | 150° |
| 2026-04-29 19:25 | 50.00511 | 8.10792 | 37319 ft | 460 kts | 150° |
| 2026-04-29 19:25 | 49.94769 | 8.15188 | 37322 ft | 460 kts | 150° |
| 2026-04-29 19:26 | 49.89021 | 8.19578 | 37317 ft | 460 kts | 150° |
| 2026-04-29 19:26 | 49.83262 | 8.23964 | 37293 ft | 461 kts | 150° |
| 2026-04-29 19:27 | 49.77524 | 8.28321 | 37265 ft | 462 kts | 150° |
| 2026-04-29 19:27 | 49.71746 | 8.32698 | 37280 ft | 463 kts | 151° |
| 2026-04-29 19:28 | 49.65954 | 8.37074 | 37265 ft | 464 kts | 151° |
| 2026-04-29 19:28 | 49.60153 | 8.41445 | 37279 ft | 464 kts | 151° |
| 2026-04-29 19:29 | 49.54345 | 8.45810 | 37266 ft | 465 kts | 151° |
| 2026-04-29 19:29 | 49.48523 | 8.50173 | 37267 ft | 465 kts | 151° |
| 2026-04-29 19:30 | 49.42694 | 8.54530 | 37260 ft | 466 kts | 151° |
| 2026-04-29 19:30 | 49.36879 | 8.58865 | 37270 ft | 466 kts | 151° |
| 2026-04-29 19:31 | 49.31028 | 8.63216 | 37267 ft | 467 kts | 151° |
| 2026-04-29 19:31 | 49.25167 | 8.67562 | 37261 ft | 468 kts | 152° |
| 2026-04-29 19:32 | 49.19294 | 8.71906 | 37241 ft | 469 kts | 152° |
| 2026-04-29 19:32 | 49.13453 | 8.76214 | 37242 ft | 469 kts | 152° |
| 2026-04-29 19:33 | 49.07566 | 8.80546 | 37228 ft | 470 kts | 152° |
| 2026-04-29 19:33 | 49.01663 | 8.84877 | 37245 ft | 472 kts | 152° |
| 2026-04-29 19:34 | 48.95741 | 8.89211 | 37225 ft | 472 kts | 152° |
| 2026-04-29 19:34 | 48.89811 | 8.93539 | 37235 ft | 473 kts | 152° |
| 2026-04-29 19:35 | 48.83865 | 8.97867 | 37232 ft | 473 kts | 152° |
| 2026-04-29 19:35 | 48.77920 | 9.02183 | 37234 ft | 474 kts | 152° |
| 2026-04-29 19:36 | 48.71970 | 9.06492 | 37229 ft | 474 kts | 153° |
| 2026-04-29 19:36 | 48.66015 | 9.10793 | 37231 ft | 474 kts | 153° |
| 2026-04-29 19:37 | 48.60065 | 9.15079 | 37260 ft | 473 kts | 153° |
| 2026-04-29 19:37 | 48.54145 | 9.19332 | 37239 ft | 474 kts | 153° |
| 2026-04-29 19:38 | 48.48190 | 9.23599 | 37225 ft | 473 kts | 153° |
| 2026-04-29 19:38 | 48.42237 | 9.27854 | 37222 ft | 473 kts | 153° |
| 2026-04-29 19:39 | 48.36280 | 9.32100 | 37222 ft | 473 kts | 153° |
| 2026-04-29 19:39 | 48.30367 | 9.36304 | 37221 ft | 473 kts | 153° |
| 2026-04-29 19:40 | 48.24419 | 9.40523 | 37212 ft | 472 kts | 153° |
| 2026-04-29 19:40 | 48.18481 | 9.44724 | 37245 ft | 472 kts | 154° |
| 2026-04-29 19:41 | 48.12539 | 9.48917 | 37230 ft | 472 kts | 154° |
| 2026-04-29 19:41 | 48.06580 | 9.53113 | 37214 ft | 473 kts | 154° |
| 2026-04-29 19:42 | 48.00718 | 9.57427 | 37204 ft | 472 kts | 147° |
| 2026-04-29 19:42 | 47.95293 | 9.62911 | 37200 ft | 471 kts | 143° |
| 2026-04-29 19:43 | 47.89924 | 9.68555 | 37199 ft | 471 kts | 144° |
| 2026-04-29 19:43 | 47.84531 | 9.74133 | 37194 ft | 472 kts | 144° |
| 2026-04-29 19:44 | 47.79102 | 9.79666 | 37176 ft | 473 kts | 145° |
| 2026-04-29 19:44 | 47.73650 | 9.85187 | 37191 ft | 474 kts | 145° |
| 2026-04-29 19:45 | 47.68193 | 9.90700 | 37183 ft | 475 kts | 145° |
| 2026-04-29 19:45 | 47.62721 | 9.96217 | 37193 ft | 475 kts | 145° |
| 2026-04-29 19:46 | 47.57281 | 10.01689 | 37165 ft | 476 kts | 146° |
| 2026-04-29 19:46 | 47.51788 | 10.07201 | 37203 ft | 477 kts | 146° |
| 2026-04-29 19:47 | 47.46370 | 10.12623 | 37177 ft | 478 kts | 146° |
| 2026-04-29 19:47 | 47.40766 | 10.18217 | 37180 ft | 479 kts | 146° |
| 2026-04-29 19:48 | 47.35232 | 10.23727 | 37187 ft | 479 kts | 146° |
| 2026-04-29 19:48 | 47.29700 | 10.29219 | 37186 ft | 480 kts | 147° |
| 2026-04-29 19:49 | 47.24245 | 10.34624 | 37195 ft | 480 kts | 147° |
| 2026-04-29 19:49 | 47.18600 | 10.40204 | 37189 ft | 482 kts | 147° |
| 2026-04-29 19:50 | 47.13029 | 10.45696 | 37184 ft | 482 kts | 147° |
| 2026-04-29 19:50 | 47.07474 | 10.51137 | 37179 ft | 483 kts | 150° |
| 2026-04-29 19:51 | 47.01385 | 10.55078 | 37192 ft | 477 kts | 166° |
| 2026-04-29 19:51 | 46.96089 | 10.57332 | 37191 ft | 477 kts | 167° |
| 2026-04-29 19:52 | 46.88629 | 10.60608 | 37152 ft | 480 kts | 166° |
| 2026-04-29 19:52 | 46.83319 | 10.63013 | 37158 ft | 481 kts | 166° |
| 2026-04-29 19:53 | 46.76918 | 10.65881 | 37159 ft | 481 kts | 166° |
| 2026-04-29 19:53 | 46.70519 | 10.68679 | 37183 ft | 478 kts | 168° |
| 2026-04-29 19:54 | 46.60825 | 10.72197 | 37160 ft | 478 kts | 171° |
| 2026-04-29 19:54 | 46.54346 | 10.74465 | 37149 ft | 479 kts | 171° |
| 2026-04-29 19:55 | 46.47877 | 10.76766 | 37150 ft | 480 kts | 170° |
| 2026-04-29 19:55 | 46.41395 | 10.79097 | 37159 ft | 480 kts | 170° |
| 2026-04-29 19:56 | 46.34903 | 10.81429 | 37166 ft | 481 kts | 170° |
| 2026-04-29 19:56 | 46.28458 | 10.83739 | 37186 ft | 479 kts | 170° |
| 2026-04-29 19:57 | 46.21996 | 10.86048 | 37181 ft | 478 kts | 170° |
| 2026-04-29 19:57 | 46.15530 | 10.88351 | 37169 ft | 478 kts | 170° |
| 2026-04-29 19:58 | 46.09081 | 10.90642 | 37165 ft | 477 kts | 170° |
| 2026-04-29 19:58 | 46.02639 | 10.92928 | 37148 ft | 475 kts | 171° |
| 2026-04-29 19:59 | 45.96222 | 10.95197 | 37160 ft | 474 kts | 171° |
| 2026-04-29 19:59 | 45.89818 | 10.97455 | 37160 ft | 474 kts | 171° |
| 2026-04-29 20:00 | 45.83457 | 10.99694 | 37140 ft | 472 kts | 171° |
| 2026-04-29 20:00 | 45.77097 | 11.01929 | 37151 ft | 469 kts | 171° |
| 2026-04-29 20:01 | 45.70743 | 11.04155 | 37158 ft | 469 kts | 171° |
| 2026-04-29 20:01 | 45.64384 | 11.06376 | 37141 ft | 470 kts | 171° |
| 2026-04-29 20:02 | 45.58037 | 11.08589 | 37129 ft | 469 kts | 171° |
| 2026-04-29 20:02 | 45.52760 | 11.10425 | 37126 ft | 469 kts | 171° |
| 2026-04-29 20:03 | 45.45396 | 11.12983 | 37132 ft | 468 kts | 171° |
| 2026-04-29 20:03 | 45.39064 | 11.15175 | 37128 ft | 467 kts | 171° |
| 2026-04-29 20:04 | 45.32744 | 11.17359 | 37120 ft | 467 kts | 171° |
| 2026-04-29 20:04 | 45.26424 | 11.19538 | 37116 ft | 467 kts | 171° |
| 2026-04-29 20:05 | 45.20139 | 11.21699 | 37098 ft | 467 kts | 170° |
| 2026-04-29 20:05 | 45.13816 | 11.23869 | 37116 ft | 467 kts | 170° |
| 2026-04-29 20:06 | 45.07492 | 11.26034 | 37175 ft | 467 kts | 170° |
| 2026-04-29 20:06 | 45.01164 | 11.28196 | 37155 ft | 468 kts | 170° |
| 2026-04-29 20:07 | 44.94840 | 11.30351 | 37188 ft | 468 kts | 170° |
| 2026-04-29 20:07 | 44.88502 | 11.32506 | 37187 ft | 468 kts | 170° |
| 2026-04-29 20:08 | 44.83235 | 11.34293 | 37176 ft | 469 kts | 170° |
| 2026-04-29 20:08 | 44.75815 | 11.36805 | 37163 ft | 469 kts | 170° |
| 2026-04-29 20:09 | 44.69498 | 11.38939 | 37149 ft | 469 kts | 170° |
| 2026-04-29 20:09 | 44.63143 | 11.41080 | 37143 ft | 470 kts | 170° |
| 2026-04-29 20:10 | 44.56785 | 11.43218 | 37126 ft | 469 kts | 170° |
| 2026-04-29 20:10 | 44.50439 | 11.45347 | 37136 ft | 468 kts | 170° |
| 2026-04-29 20:11 | 44.44104 | 11.47468 | 37142 ft | 468 kts | 170° |
| 2026-04-29 20:11 | 44.37770 | 11.49583 | 37146 ft | 467 kts | 170° |
| 2026-04-29 20:12 | 44.31457 | 11.51687 | 37162 ft | 466 kts | 170° |
| 2026-04-29 20:12 | 44.25160 | 11.53781 | 37177 ft | 465 kts | 170° |
| 2026-04-29 20:13 | 44.18911 | 11.55854 | 37183 ft | 464 kts | 170° |
| 2026-04-29 20:13 | 44.12626 | 11.57934 | 37176 ft | 464 kts | 170° |
| 2026-04-29 20:14 | 44.06340 | 11.60010 | 37141 ft | 463 kts | 170° |
| 2026-04-29 20:14 | 44.00070 | 11.62077 | 37112 ft | 463 kts | 170° |
| 2026-04-29 20:15 | 43.93794 | 11.64141 | 37104 ft | 463 kts | 170° |
| 2026-04-29 20:15 | 43.87534 | 11.66195 | 37107 ft | 462 kts | 170° |
| 2026-04-29 20:16 | 43.81265 | 11.68248 | 37083 ft | 462 kts | 170° |
| 2026-04-29 20:16 | 43.75007 | 11.70293 | 37080 ft | 461 kts | 170° |
| 2026-04-29 20:17 | 43.68760 | 11.72330 | 37082 ft | 461 kts | 170° |
| 2026-04-29 20:17 | 43.62526 | 11.74359 | 37083 ft | 460 kts | 170° |
| 2026-04-29 20:18 | 43.56329 | 11.76370 | 37086 ft | 460 kts | 170° |
| 2026-04-29 20:18 | 43.50098 | 11.78389 | 37086 ft | 460 kts | 170° |
| 2026-04-29 20:19 | 43.43867 | 11.80403 | 37077 ft | 460 kts | 170° |
| 2026-04-29 20:19 | 43.37626 | 11.82416 | 37070 ft | 460 kts | 170° |
| 2026-04-29 20:20 | 43.31389 | 11.84424 | 37080 ft | 460 kts | 170° |
| 2026-04-29 20:20 | 43.25150 | 11.86428 | 37069 ft | 460 kts | 170° |
| 2026-04-29 20:21 | 43.18913 | 11.88428 | 37066 ft | 460 kts | 170° |
| 2026-04-29 20:21 | 43.12680 | 11.90422 | 37075 ft | 459 kts | 170° |
| 2026-04-29 20:22 | 43.06461 | 11.92408 | 37072 ft | 459 kts | 170° |
| 2026-04-29 20:22 | 43.00286 | 11.94375 | 37054 ft | 458 kts | 170° |
| 2026-04-29 20:23 | 42.94087 | 11.96346 | 37067 ft | 456 kts | 170° |
| 2026-04-29 20:23 | 42.87915 | 11.98305 | 37072 ft | 454 kts | 170° |
| 2026-04-29 20:24 | 42.81768 | 12.00250 | 37070 ft | 453 kts | 170° |
| 2026-04-29 20:24 | 42.75635 | 12.02188 | 37075 ft | 451 kts | 170° |
| 2026-04-29 20:25 | 42.69524 | 12.04115 | 37079 ft | 450 kts | 170° |
| 2026-04-29 20:25 | 42.63423 | 12.06035 | 37072 ft | 450 kts | 171° |
| 2026-04-29 20:26 | 42.57316 | 12.07952 | 37061 ft | 450 kts | 171° |
| 2026-04-29 20:26 | 42.51235 | 12.09858 | 37075 ft | 451 kts | 171° |
| 2026-04-29 20:27 | 42.46140 | 12.11452 | 37071 ft | 452 kts | 171° |
| 2026-04-29 20:27 | 42.38964 | 12.13692 | 37074 ft | 453 kts | 171° |
| 2026-04-29 20:28 | 42.32816 | 12.15607 | 37064 ft | 454 kts | 171° |
| 2026-04-29 20:28 | 42.26689 | 12.17513 | 37068 ft | 455 kts | 171° |
| 2026-04-29 20:29 | 42.20520 | 12.19427 | 37068 ft | 455 kts | 171° |
| 2026-04-29 20:29 | 42.14345 | 12.21339 | 37069 ft | 455 kts | 171° |
| 2026-04-29 20:30 | 42.08167 | 12.23249 | 37062 ft | 455 kts | 171° |
| 2026-04-29 20:30 | 42.01983 | 12.25156 | 37058 ft | 456 kts | 171° |
| 2026-04-29 20:31 | 41.95806 | 12.27058 | 37074 ft | 455 kts | 171° |
| 2026-04-29 20:31 | 41.89631 | 12.28955 | 37077 ft | 455 kts | 171° |
| 2026-04-29 20:32 | 41.83505 | 12.30834 | 37075 ft | 454 kts | 171° |
| 2026-04-29 20:32 | 41.78383 | 12.32401 | 37074 ft | 453 kts | 171° |
| 2026-04-29 20:33 | 41.71202 | 12.34595 | 37081 ft | 452 kts | 171° |
| 2026-04-29 20:33 | 41.65076 | 12.36462 | 37066 ft | 451 kts | 171° |
| 2026-04-29 20:34 | 41.58989 | 12.38314 | 37080 ft | 450 kts | 171° |
| 2026-04-29 20:34 | 41.52889 | 12.40166 | 37077 ft | 449 kts | 171° |
| 2026-04-29 20:35 | 41.46804 | 12.42010 | 37052 ft | 448 kts | 171° |
| 2026-04-29 20:35 | 41.40715 | 12.43851 | 37055 ft | 447 kts | 171° |
| 2026-04-29 20:36 | 41.34643 | 12.45684 | 37057 ft | 447 kts | 171° |
| 2026-04-29 20:36 | 41.28596 | 12.47506 | 37043 ft | 447 kts | 171° |
| 2026-04-29 20:37 | 41.22520 | 12.49333 | 37056 ft | 447 kts | 171° |
| 2026-04-29 20:37 | 41.16445 | 12.51156 | 37058 ft | 448 kts | 171° |
| 2026-04-29 20:38 | 41.11391 | 12.52670 | 37061 ft | 448 kts | 171° |
| 2026-04-29 20:38 | 41.05306 | 12.54490 | 37052 ft | 448 kts | 171° |
| 2026-04-29 20:39 | 40.99220 | 12.56307 | 37062 ft | 448 kts | 171° |
| 2026-04-29 20:39 | 40.93123 | 12.58124 | 37061 ft | 449 kts | 171° |
| 2026-04-29 20:40 | 40.87025 | 12.59938 | 37057 ft | 449 kts | 171° |
| 2026-04-29 20:40 | 40.80951 | 12.61741 | 37058 ft | 449 kts | 171° |
| 2026-04-29 20:41 | 40.74849 | 12.63549 | 37058 ft | 450 kts | 171° |
| 2026-04-29 20:41 | 40.68734 | 12.65357 | 37059 ft | 450 kts | 171° |
| 2026-04-29 20:42 | 40.62619 | 12.67162 | 37049 ft | 450 kts | 172° |
| 2026-04-29 20:42 | 40.56497 | 12.68966 | 37054 ft | 450 kts | 172° |
| 2026-04-29 20:43 | 40.50429 | 12.70750 | 37059 ft | 449 kts | 172° |
| 2026-04-29 20:43 | 40.44329 | 12.72541 | 37055 ft | 449 kts | 172° |
| 2026-04-29 20:44 | 40.38230 | 12.74328 | 37051 ft | 449 kts | 172° |
| 2026-04-29 20:44 | 40.32127 | 12.76113 | 37062 ft | 448 kts | 172° |
| 2026-04-29 20:45 | 40.26031 | 12.77892 | 37046 ft | 448 kts | 172° |
| 2026-04-29 20:45 | 40.19939 | 12.79667 | 37069 ft | 448 kts | 172° |
| 2026-04-29 20:46 | 40.13842 | 12.81440 | 37053 ft | 448 kts | 172° |
| 2026-04-29 20:46 | 40.07791 | 12.83197 | 37060 ft | 449 kts | 172° |
| 2026-04-29 20:47 | 40.01689 | 12.84964 | 37067 ft | 449 kts | 172° |
| 2026-04-29 20:47 | 39.95583 | 12.86730 | 37069 ft | 449 kts | 172° |
| 2026-04-29 20:48 | 39.89459 | 12.88498 | 37059 ft | 450 kts | 172° |
| 2026-04-29 20:48 | 39.83348 | 12.90260 | 37055 ft | 450 kts | 172° |
| 2026-04-29 20:49 | 39.77232 | 12.92019 | 37059 ft | 450 kts | 172° |
| 2026-04-29 20:49 | 39.71100 | 12.93780 | 37056 ft | 451 kts | 173° |
| 2026-04-29 20:50 | 39.65013 | 12.95524 | 37058 ft | 451 kts | 173° |
| 2026-04-29 20:50 | 39.58879 | 12.97279 | 37058 ft | 451 kts | 173° |
| 2026-04-29 20:51 | 39.52744 | 12.99031 | 37057 ft | 452 kts | 173° |
| 2026-04-29 20:51 | 39.46597 | 13.00784 | 37051 ft | 452 kts | 173° |
| 2026-04-29 20:52 | 39.40454 | 13.02532 | 37059 ft | 452 kts | 173° |
| 2026-04-29 20:52 | 39.34301 | 13.04279 | 37055 ft | 453 kts | 173° |
| 2026-04-29 20:53 | 39.28139 | 13.06026 | 37041 ft | 453 kts | 173° |
| 2026-04-29 20:53 | 39.21976 | 13.07771 | 37052 ft | 453 kts | 173° |
| 2026-04-29 20:54 | 39.12733 | 13.10381 | 37052 ft | 453 kts | 173° |
| 2026-04-29 20:55 | 39.06565 | 13.12119 | 37048 ft | 454 kts | 174° |
| 2026-04-29 20:55 | 39.00401 | 13.13852 | 37037 ft | 453 kts | 174° |
| 2026-04-29 20:56 | 38.94272 | 13.15573 | 37049 ft | 453 kts | 174° |
| 2026-04-29 20:56 | 38.88111 | 13.17300 | 37046 ft | 453 kts | 174° |
| 2026-04-29 20:57 | 38.81936 | 13.19027 | 37026 ft | 453 kts | 174° |
| 2026-04-29 20:57 | 38.75772 | 13.20748 | 37044 ft | 453 kts | 174° |
| 2026-04-29 20:58 | 38.69606 | 13.22467 | 37044 ft | 453 kts | 174° |
| 2026-04-29 20:58 | 38.63445 | 13.24181 | 37041 ft | 453 kts | 174° |
| 2026-04-29 20:59 | 38.57315 | 13.25884 | 37031 ft | 453 kts | 174° |
| 2026-04-29 20:59 | 38.51144 | 13.27596 | 37038 ft | 453 kts | 174° |
| 2026-04-29 21:00 | 38.44991 | 13.29299 | 37037 ft | 453 kts | 174° |
| 2026-04-29 21:00 | 38.38838 | 13.30999 | 37042 ft | 452 kts | 174° |
| 2026-04-29 21:00 | 38.35773 | 13.31847 | 36853 ft | 448 kts | 174° |
| 2026-04-29 21:01 | 38.32754 | 13.32683 | 36604 ft | 439 kts | 174° |
| 2026-04-29 21:01 | 38.29798 | 13.33503 | 36221 ft | 433 kts | 174° |
| 2026-04-29 21:01 | 38.26864 | 13.34312 | 35886 ft | 428 kts | 174° |
| 2026-04-29 21:01 | 38.23969 | 13.35108 | 35509 ft | 424 kts | 175° |
| 2026-04-29 21:02 | 38.21099 | 13.35896 | 35143 ft | 420 kts | 175° |
| 2026-04-29 21:02 | 38.18258 | 13.36675 | 34777 ft | 416 kts | 175° |
| 2026-04-29 21:02 | 38.15433 | 13.37449 | 34421 ft | 413 kts | 175° |
| 2026-04-29 21:02 | 38.12669 | 13.38207 | 34063 ft | 410 kts | 175° |
| 2026-04-29 21:03 | 38.09892 | 13.38966 | 33652 ft | 407 kts | 175° |
| 2026-04-29 21:03 | 38.07130 | 13.39722 | 33277 ft | 403 kts | 175° |
| 2026-04-29 21:03 | 38.04400 | 13.40469 | 32908 ft | 400 kts | 175° |
| 2026-04-29 21:03 | 38.01697 | 13.41207 | 32550 ft | 396 kts | 175° |
| 2026-04-29 21:04 | 37.99025 | 13.41938 | 32237 ft | 389 kts | 175° |
| 2026-04-29 21:04 | 37.96387 | 13.42661 | 31911 ft | 385 kts | 175° |
| 2026-04-29 21:04 | 37.93764 | 13.43373 | 31568 ft | 391 kts | 175° |
| 2026-04-29 21:04 | 37.91032 | 13.44103 | 31254 ft | 411 kts | 175° |
| 2026-04-29 21:05 | 37.88160 | 13.44867 | 30867 ft | 433 kts | 175° |
| 2026-04-29 21:05 | 37.85149 | 13.45673 | 30473 ft | 451 kts | 175° |
| 2026-04-29 21:05 | 37.82048 | 13.46514 | 30069 ft | 458 kts | 174° |
| 2026-04-29 21:05 | 37.78905 | 13.47373 | 29599 ft | 466 kts | 174° |
| 2026-04-29 21:06 | 37.75725 | 13.48244 | 29129 ft | 467 kts | 174° |
| 2026-04-29 21:06 | 37.72561 | 13.49114 | 28702 ft | 461 kts | 174° |
| 2026-04-29 21:06 | 37.69436 | 13.49972 | 28265 ft | 457 kts | 173° |
| 2026-04-29 21:06 | 37.66338 | 13.50816 | 27854 ft | 454 kts | 173° |
| 2026-04-29 21:07 | 37.63292 | 13.51642 | 27428 ft | 452 kts | 173° |
| 2026-04-29 21:07 | 37.60182 | 13.52481 | 27001 ft | 451 kts | 173° |
| 2026-04-29 21:07 | 37.57161 | 13.53296 | 26619 ft | 449 kts | 173° |
| 2026-04-29 21:07 | 37.54107 | 13.54118 | 26190 ft | 448 kts | 173° |
| 2026-04-29 21:08 | 37.51066 | 13.54937 | 25780 ft | 447 kts | 173° |
| 2026-04-29 21:08 | 37.48025 | 13.55755 | 25362 ft | 445 kts | 172° |
| 2026-04-29 21:08 | 37.45001 | 13.56569 | 24957 ft | 443 kts | 172° |
| 2026-04-29 21:08 | 37.41991 | 13.57378 | 24551 ft | 441 kts | 172° |
| 2026-04-29 21:09 | 37.38997 | 13.58183 | 24127 ft | 439 kts | 172° |
| 2026-04-29 21:09 | 37.36016 | 13.58983 | 23721 ft | 437 kts | 172° |
| 2026-04-29 21:09 | 37.33038 | 13.59782 | 23240 ft | 434 kts | 172° |
| 2026-04-29 21:09 | 37.30089 | 13.60573 | 22792 ft | 429 kts | 172° |
| 2026-04-29 21:10 | 37.27182 | 13.61352 | 22384 ft | 425 kts | 172° |
| 2026-04-29 21:10 | 37.24298 | 13.62124 | 21963 ft | 422 kts | 171° |
| 2026-04-29 21:10 | 37.21474 | 13.62879 | 21580 ft | 419 kts | 171° |
| 2026-04-29 21:10 | 37.18594 | 13.63648 | 21181 ft | 416 kts | 171° |
| 2026-04-29 21:11 | 37.15809 | 13.64391 | 20788 ft | 414 kts | 171° |
| 2026-04-29 21:11 | 37.13001 | 13.65149 | 20414 ft | 413 kts | 170° |
| 2026-04-29 21:11 | 37.10261 | 13.66234 | 20165 ft | 411 kts | 161° |
| 2026-04-29 21:11 | 37.07618 | 13.67588 | 19828 ft | 411 kts | 160° |
| 2026-04-29 21:12 | 37.04980 | 13.68991 | 19467 ft | 412 kts | 160° |
| 2026-04-29 21:12 | 37.02343 | 13.70397 | 19093 ft | 412 kts | 160° |
| 2026-04-29 21:12 | 36.99704 | 13.71791 | 18704 ft | 412 kts | 160° |
| 2026-04-29 21:12 | 36.97053 | 13.73176 | 18295 ft | 412 kts | 160° |
| 2026-04-29 21:13 | 36.94425 | 13.74539 | 17856 ft | 406 kts | 160° |
| 2026-04-29 21:13 | 36.91832 | 13.75875 | 17440 ft | 399 kts | 160° |
| 2026-04-29 21:13 | 36.89274 | 13.77189 | 17053 ft | 398 kts | 160° |
| 2026-04-29 21:13 | 36.86709 | 13.78501 | 16682 ft | 398 kts | 160° |
| 2026-04-29 21:14 | 36.84145 | 13.79812 | 16308 ft | 397 kts | 160° |
| 2026-04-29 21:14 | 36.81622 | 13.81101 | 15931 ft | 396 kts | 160° |
| 2026-04-29 21:14 | 36.79075 | 13.82403 | 15558 ft | 395 kts | 160° |
| 2026-04-29 21:14 | 36.76542 | 13.83696 | 15191 ft | 392 kts | 160° |
| 2026-04-29 21:15 | 36.74023 | 13.84982 | 14819 ft | 390 kts | 160° |
| 2026-04-29 21:15 | 36.71522 | 13.86258 | 14453 ft | 387 kts | 160° |
| 2026-04-29 21:15 | 36.69036 | 13.87525 | 14075 ft | 384 kts | 160° |
| 2026-04-29 21:15 | 36.66569 | 13.88782 | 13689 ft | 382 kts | 160° |
| 2026-04-29 21:16 | 36.64113 | 13.90032 | 13281 ft | 379 kts | 160° |
| 2026-04-29 21:16 | 36.61680 | 13.91269 | 12906 ft | 376 kts | 160° |
| 2026-04-29 21:16 | 36.59271 | 13.92494 | 12535 ft | 373 kts | 160° |
| 2026-04-29 21:16 | 36.56909 | 13.93694 | 12178 ft | 370 kts | 160° |
| 2026-04-29 21:17 | 36.54527 | 13.94904 | 11831 ft | 367 kts | 160° |
| 2026-04-29 21:17 | 36.52169 | 13.96100 | 11478 ft | 365 kts | 160° |
| 2026-04-29 21:17 | 36.49831 | 13.97293 | 11126 ft | 360 kts | 159° |
| 2026-04-29 21:17 | 36.47592 | 13.98612 | 10849 ft | 351 kts | 155° |
| 2026-04-29 21:18 | 36.45444 | 13.99998 | 10521 ft | 344 kts | 154° |
| 2026-04-29 21:18 | 36.43351 | 14.01380 | 10212 ft | 337 kts | 154° |
| 2026-04-29 21:18 | 36.41338 | 14.02707 | 10064 ft | 325 kts | 155° |
| 2026-04-29 21:18 | 36.39374 | 14.03994 | 10000 ft | 311 kts | 155° |
| 2026-04-29 21:19 | 36.37492 | 14.05218 | 9985 ft | 297 kts | 155° |
| 2026-04-29 21:19 | 36.35688 | 14.06384 | 9903 ft | 287 kts | 155° |
| 2026-04-29 21:19 | 36.33936 | 14.07512 | 9698 ft | 282 kts | 155° |
| 2026-04-29 21:19 | 36.32197 | 14.08627 | 9416 ft | 280 kts | 156° |
| 2026-04-29 21:20 | 36.30495 | 14.09716 | 9145 ft | 277 kts | 156° |
| 2026-04-29 21:20 | 36.28784 | 14.10812 | 8872 ft | 275 kts | 155° |
| 2026-04-29 21:20 | 36.27089 | 14.11896 | 8600 ft | 273 kts | 156° |
| 2026-04-29 21:20 | 36.25413 | 14.12968 | 8297 ft | 268 kts | 155° |
| 2026-04-29 21:21 | 36.23759 | 14.14025 | 7831 ft | 267 kts | 155° |
| 2026-04-29 21:21 | 36.22116 | 14.15074 | 7383 ft | 264 kts | 155° |
| 2026-04-29 21:21 | 36.20494 | 14.16109 | 6991 ft | 260 kts | 155° |
| 2026-04-29 21:21 | 36.18893 | 14.17131 | 6578 ft | 258 kts | 155° |
| 2026-04-29 21:22 | 36.17305 | 14.18144 | 6244 ft | 257 kts | 155° |
| 2026-04-29 21:22 | 36.15721 | 14.19153 | 5963 ft | 255 kts | 155° |
| 2026-04-29 21:22 | 36.14147 | 14.20155 | 5702 ft | 253 kts | 154° |
| 2026-04-29 21:22 | 36.12582 | 14.21152 | 5440 ft | 251 kts | 154° |
| 2026-04-29 21:23 | 36.11055 | 14.22124 | 5235 ft | 247 kts | 154° |
| 2026-04-29 21:23 | 36.09555 | 14.23080 | 5143 ft | 239 kts | 154° |
| 2026-04-29 21:23 | 36.08103 | 14.24005 | 5045 ft | 230 kts | 154° |
| 2026-04-29 21:23 | 36.06703 | 14.24896 | 4956 ft | 221 kts | 154° |
| 2026-04-29 21:24 | 36.05366 | 14.25746 | 4889 ft | 209 kts | 154° |
| 2026-04-29 21:24 | 36.04526 | 14.26280 | 4825 ft | 200 kts | 154° |
| 2026-04-29 21:24 | 36.03301 | 14.27057 | 4598 ft | 195 kts | 154° |
| 2026-04-29 21:24 | 36.02103 | 14.27817 | 4411 ft | 193 kts | 153° |
| 2026-04-29 21:25 | 36.00981 | 14.28716 | 4195 ft | 195 kts | 136° |
| 2026-04-29 21:25 | 36.00081 | 14.29933 | 4155 ft | 192 kts | 136° |
| 2026-04-29 21:25 | 35.99140 | 14.31088 | 3937 ft | 189 kts | 136° |
| 2026-04-29 21:25 | 35.98222 | 14.32213 | 3701 ft | 183 kts | 136° |
| 2026-04-29 21:26 | 35.97336 | 14.33308 | 3454 ft | 177 kts | 135° |
| 2026-04-29 21:26 | 35.96476 | 14.34376 | 3224 ft | 174 kts | 135° |
| 2026-04-29 21:26 | 35.95651 | 14.35403 | 3004 ft | 168 kts | 135° |
| 2026-04-29 21:26 | 35.94837 | 14.36416 | 2820 ft | 168 kts | 135° |
| 2026-04-29 21:27 | 35.94014 | 14.37440 | 2594 ft | 167 kts | 135° |
| 2026-04-29 21:27 | 35.93210 | 14.38441 | 2371 ft | 160 kts | 135° |
| 2026-04-29 21:27 | 35.92436 | 14.39404 | 2150 ft | 155 kts | 135° |
| 2026-04-29 21:27 | 35.91690 | 14.40332 | 1956 ft | 147 kts | 135° |
| 2026-04-29 21:28 | 35.90988 | 14.41207 | 1789 ft | 140 kts | 135° |
| 2026-04-29 21:28 | 35.90298 | 14.42065 | 1585 ft | 140 kts | 135° |
| 2026-04-29 21:28 | 35.89614 | 14.42919 | 1413 ft | 141 kts | 134° |
| 2026-04-29 21:28 | 35.88914 | 14.43789 | 1227 ft | 144 kts | 135° |
| 2026-04-29 21:29 | 35.88198 | 14.44680 | 1006 ft | 147 kts | 133° |
| 2026-04-29 21:29 | 35.87485 | 14.45570 | 813 ft | 145 kts | 132° |
| 2026-04-29 21:29 | 35.86778 | 14.46456 | 648 ft | 148 kts | 133° |
| 2026-04-29 21:29 | 35.86056 | 14.47362 | 439 ft | 148 kts | 132° |
| 2026-04-29 21:30 | 35.85348 | 14.48241 | 275 ft | 138 kts | 131° |
| 2026-04-29 21:30 | 35.84806 | 14.48916 | 258 ft | 80 kts | 135° |
| 2026-04-29 21:30 | 35.84549 | 14.49240 | 258 ft | 38 kts | 130° |
| 2026-04-29 21:30 | 35.84448 | 14.49501 | 258 ft | 16 kts | 93° |
| 2026-04-29 21:31 | 35.84517 | 14.49567 | 258 ft | 15 kts | 338° |
| 2026-04-29 21:31 | 35.84584 | 14.49539 | 258 ft | 10 kts | 24° |
| 2026-04-29 21:31 | 35.84637 | 14.49583 | 258 ft | 6 kts | 20° |
| 2026-04-29 21:31 | 35.84675 | 14.49570 | 258 ft | 7 kts | 337° |
| 2026-04-29 21:32 | 35.84726 | 14.49526 | 258 ft | 10 kts | 313° |
| 2026-04-29 21:32 | 35.84775 | 14.49469 | 258 ft | 10 kts | 328° |
| 2026-04-29 21:32 | 35.84836 | 14.49456 | 258 ft | 7 kts | 359° |
| 2026-04-29 21:32 | 35.84859 | 14.49455 | 258 ft | 0 kts | 359° |